createdAt,value
2018-07-26T04:29:34.422Z,18.30
2018-07-26T04:32:07.788Z,18.40
2018-07-26T04:34:40.028Z,18.60
2018-07-26T04:37:12.126Z,18.70
2018-07-26T04:39:44.446Z,18.90
2018-07-26T04:42:16.799Z,19.00
2018-07-26T04:47:20.105Z,19.40
2018-07-26T04:49:52.578Z,19.60
2018-07-26T04:52:24.862Z,19.70
2018-07-26T04:54:57.127Z,19.90
2018-07-26T04:57:29.513Z,20.00
2018-07-26T05:00:01.650Z,20.20
2018-07-26T05:02:34.153Z,20.30
2018-07-26T05:05:06.758Z,20.40
2018-07-26T05:07:39.140Z,20.70
2018-07-26T05:10:11.274Z,20.90
2018-07-26T05:12:43.748Z,21.20
2018-07-26T05:15:15.740Z,21.30
2018-07-26T05:17:47.940Z,21.30
2018-07-26T05:20:19.921Z,21.40
2018-07-26T05:22:51.820Z,21.50
2018-07-26T05:25:23.883Z,21.40
2018-07-26T05:27:56.308Z,21.40
2018-07-26T05:30:28.733Z,21.40
2018-07-26T05:33:00.740Z,21.40
2018-07-26T05:35:32.923Z,21.40
2018-07-26T05:38:05.031Z,21.40
2018-07-26T05:40:37.180Z,21.40
2018-07-26T05:43:10.079Z,21.30
2018-07-26T05:45:42.920Z,21.30
2018-07-26T05:48:14.959Z,21.40
2018-07-26T05:50:47.089Z,21.50
2018-07-26T05:53:19.369Z,21.50
2018-07-26T05:55:51.710Z,21.50
2018-07-26T05:58:24.045Z,21.50
2018-07-26T06:00:56.579Z,21.50
2018-07-26T06:03:29.173Z,21.60
2018-07-26T06:06:01.059Z,21.50
2018-07-26T06:08:33.072Z,21.50
2018-07-26T06:11:04.949Z,21.50
2018-07-26T06:13:37.056Z,21.50
2018-07-26T06:16:09.171Z,21.60
2018-07-26T06:18:41.511Z,21.80
2018-07-26T06:21:13.819Z,22.00
2018-07-26T06:23:46.136Z,22.20
2018-07-26T06:26:18.515Z,22.50
2018-07-26T06:28:50.627Z,22.90
2018-07-26T06:31:22.810Z,23.00
2018-07-26T06:33:55.192Z,23.30
2018-07-26T06:36:28.087Z,23.50
2018-07-26T06:39:02.022Z,23.80
2018-07-26T06:41:35.761Z,24.10
2018-07-26T06:44:08.491Z,24.20
2018-07-26T06:46:41.280Z,24.10
2018-07-26T07:14:33.205Z,23.30
2018-07-26T07:17:05.212Z,24.70
2018-07-26T08:34:37.095Z,27.10
2018-07-26T08:37:09.215Z,27.30
2018-07-26T08:39:41.404Z,27.10
2018-07-26T08:42:13.629Z,27.10
2018-07-26T08:44:45.594Z,27.40
2018-07-26T08:47:18.008Z,27.50
2018-07-26T08:49:49.977Z,27.70
2018-07-26T08:52:21.935Z,27.60
2018-07-26T08:54:54.184Z,27.50
2018-07-26T08:57:27.431Z,27.30
2018-07-26T09:02:31.867Z,27.50
2018-07-26T09:05:04.045Z,27.70
2018-07-26T09:07:36.358Z,28.00
2018-07-26T09:10:08.399Z,28.00
2018-07-26T09:12:40.586Z,28.10
2018-07-26T09:15:12.602Z,27.90
2018-07-26T09:17:44.330Z,27.70
2018-07-26T09:20:16.941Z,27.80
2018-07-26T09:22:48.829Z,27.80
2018-07-26T09:25:20.830Z,28.00
2018-07-26T09:27:52.996Z,28.10
2018-07-26T09:30:24.977Z,28.20
2018-07-26T09:32:57.033Z,28.30
2018-07-26T09:38:00.402Z,28.40
2018-07-26T09:40:33.109Z,28.60
2018-07-26T09:43:05.662Z,28.90
2018-07-26T09:45:37.750Z,29.20
2018-07-26T09:48:10.037Z,28.90
2018-07-26T09:50:43.141Z,28.70
2018-07-26T09:53:15.594Z,28.80
2018-07-26T09:55:47.636Z,28.80
2018-07-26T09:58:19.884Z,28.80
2018-07-26T10:00:56.684Z,29.00
2018-07-26T10:03:29.252Z,29.30
2018-07-26T10:06:01.452Z,29.50
2018-07-26T10:08:33.460Z,29.70
2018-07-26T10:13:37.044Z,29.80
2018-07-26T10:16:09.223Z,29.50
2018-07-26T10:18:41.182Z,29.30
2018-07-26T10:23:44.444Z,29.40
2018-07-26T10:26:16.538Z,29.50
2018-07-26T10:28:49.962Z,29.50
2018-07-26T10:31:22.274Z,29.70
2018-07-26T10:33:54.253Z,30.00
2018-07-26T10:36:26.285Z,30.00
2018-07-26T10:38:58.629Z,30.20
2018-07-26T10:41:30.709Z,30.40
2018-07-26T10:44:02.738Z,30.30
2018-07-26T10:46:34.661Z,30.10
2018-07-26T10:49:06.663Z,30.00
2018-07-26T10:51:38.904Z,30.10
2018-07-26T10:54:10.953Z,30.20
2018-07-26T14:00:15.488Z,30.10
2018-07-26T14:02:47.900Z,25.10
2018-07-26T14:05:20.240Z,25.00
2018-07-26T14:07:52.602Z,25.00
2018-07-26T14:10:24.567Z,25.00
2018-07-26T14:12:57.633Z,25.00
2018-07-26T14:15:29.633Z,25.00
2018-07-26T14:18:01.962Z,25.00
2018-07-26T14:20:35.023Z,25.00
2018-07-26T14:23:08.009Z,24.90
2018-07-26T14:25:40.187Z,24.90
2018-07-26T14:28:12.385Z,24.80
2018-07-26T14:30:44.504Z,24.80
2018-07-26T14:33:16.665Z,24.70
2018-07-26T14:35:49.677Z,24.70
2018-07-26T14:38:22.023Z,24.60
2018-07-26T14:40:54.093Z,24.60
2018-07-26T14:43:26.558Z,24.60
2018-07-26T14:45:58.773Z,24.60
2018-07-26T14:48:31.754Z,24.60
2018-07-26T14:51:03.894Z,24.60
2018-07-26T14:53:36.252Z,24.60
2018-07-26T14:56:08.602Z,24.60
2018-07-26T14:58:41.104Z,24.60
2018-07-26T15:01:13.169Z,24.60
2018-07-26T15:03:46.312Z,24.60
2018-07-26T15:06:18.593Z,24.60
2018-07-26T15:08:50.670Z,24.60
2018-07-26T15:11:22.787Z,24.60
2018-07-26T15:13:55.400Z,24.50
2018-07-26T15:16:27.634Z,24.50
2018-07-26T15:18:59.880Z,24.50
2018-07-26T15:21:31.767Z,24.40
2018-07-26T15:24:04.215Z,24.20
2018-07-26T15:26:37.128Z,24.10
2018-07-26T15:29:10.574Z,24.00
2018-07-26T15:31:43.144Z,23.90
2018-07-26T15:34:15.465Z,23.70
2018-07-26T15:36:47.742Z,23.70
2018-07-26T15:39:19.912Z,23.70
2018-07-26T15:41:52.331Z,23.60
2018-07-26T15:46:57.185Z,23.50
2018-07-26T15:49:28.931Z,23.50
2018-07-26T15:52:01.438Z,23.50
2018-07-26T15:54:33.622Z,23.50
2018-07-26T15:57:06.071Z,23.40
2018-07-26T15:59:38.927Z,23.40
2018-07-26T16:02:11.365Z,23.40
2018-07-26T16:04:43.861Z,23.50
2018-07-26T16:07:16.840Z,23.50
2018-07-26T16:09:49.614Z,23.50
2018-07-26T16:12:23.396Z,23.60
2018-07-26T16:14:57.708Z,23.70
2018-07-26T16:17:31.470Z,23.70
2018-07-26T16:22:36.949Z,23.80
2018-07-26T16:25:11.660Z,23.80
2018-07-26T16:27:45.116Z,23.90
2018-07-26T16:32:51.295Z,23.90
2018-07-26T16:35:25.884Z,24.00
2018-07-26T16:37:59.628Z,24.00
2018-07-26T16:40:32.016Z,24.00
2018-07-26T16:43:05.671Z,24.00
2018-07-26T16:45:38.560Z,23.90
2018-07-26T16:48:11.644Z,23.90
2018-07-26T16:50:44.867Z,23.90
2018-07-26T16:53:19.445Z,23.90
2018-07-26T16:55:52.185Z,23.90
2018-07-26T16:58:25.079Z,23.90
2018-07-26T17:00:59.035Z,23.80
2018-07-26T17:03:32.357Z,23.80
2018-07-26T17:06:06.052Z,23.60
2018-07-26T17:08:39.265Z,23.60
2018-07-26T17:11:11.900Z,23.60
2018-07-26T17:13:46.346Z,23.50
2018-07-26T17:16:18.885Z,23.40
2018-07-26T17:18:52.348Z,23.30
2018-07-26T17:21:25.440Z,23.20
2018-07-26T17:23:57.785Z,23.10
2018-07-26T17:26:31.094Z,22.90
2018-07-26T17:29:05.102Z,22.80
2018-07-26T17:31:37.776Z,22.70
2018-07-26T17:34:10.768Z,22.50
2018-07-26T17:36:43.810Z,22.40
2018-07-26T17:39:17.136Z,22.20
2018-07-26T17:41:51.124Z,22.10
2018-07-26T17:44:24.793Z,22.00
2018-07-26T17:46:57.945Z,22.00
2018-07-26T17:49:31.274Z,21.90
2018-07-26T17:52:04.317Z,21.80
2018-07-26T17:54:37.055Z,21.80
2018-07-26T17:57:10.092Z,21.80
2018-07-26T17:59:43.315Z,21.80
2018-07-26T18:02:16.845Z,21.80
2018-07-26T18:04:49.346Z,21.70
2018-07-26T18:07:22.353Z,21.60
2018-07-26T18:09:55.921Z,21.60
2018-07-26T18:12:28.320Z,21.50
2018-07-26T18:15:01.636Z,21.50
2018-07-26T18:17:35.063Z,21.40
2018-07-26T18:22:41.026Z,21.10
2018-07-26T18:25:13.732Z,21.10
2018-07-26T18:27:47.215Z,21.10
2018-07-26T18:30:20.133Z,21.10
2018-07-26T18:32:54.041Z,21.10
2018-07-26T18:35:26.949Z,21.00
2018-07-26T18:38:02.543Z,20.90
2018-07-26T18:40:36.765Z,20.80
2018-07-26T18:43:08.884Z,20.70
2018-07-26T18:45:41.780Z,20.70
2018-07-26T18:48:16.721Z,20.60
2018-07-26T18:50:50.240Z,20.50
2018-07-26T18:53:23.898Z,20.50
2018-07-26T18:55:57.476Z,20.50
2018-07-26T18:58:31.855Z,20.30
2018-07-26T19:01:04.919Z,20.30
2018-07-26T19:03:38.419Z,20.10
2018-07-26T19:06:11.204Z,20.10
2018-07-26T19:08:43.601Z,20.10
2018-07-26T19:11:16.668Z,20.00
2018-07-26T19:13:50.025Z,20.00
2018-07-26T19:16:22.960Z,20.00
2018-07-26T19:18:56.472Z,20.00
2018-07-26T19:21:29.280Z,19.90
2018-07-26T19:24:01.943Z,19.90
2018-07-26T19:26:34.554Z,19.80
2018-07-26T19:29:07.596Z,19.80
2018-07-26T19:31:42.414Z,19.80
2018-07-26T19:34:16.435Z,19.80
2018-07-26T19:39:25.863Z,19.80
2018-07-26T19:41:58.744Z,19.80
2018-07-26T19:44:32.181Z,19.70
2018-07-26T19:47:06.975Z,19.70
2018-07-26T19:49:40.411Z,19.60
2018-07-26T19:52:14.890Z,19.60
2018-07-26T19:54:48.325Z,19.60
2018-07-26T19:57:25.504Z,19.60
2018-07-26T19:59:59.395Z,19.60
2018-07-26T20:02:33.607Z,19.50
2018-07-26T20:05:07.291Z,19.50
2018-07-26T20:07:40.822Z,19.50
2018-07-26T20:12:48.242Z,19.50
2018-07-26T20:15:22.321Z,19.40
2018-07-26T20:17:55.315Z,19.40
2018-07-26T20:20:28.867Z,19.40
2018-07-26T20:23:03.159Z,19.40
2018-07-26T20:25:41.076Z,19.30
2018-07-26T20:28:13.948Z,19.30
2018-07-26T20:30:47.753Z,19.30
2018-07-26T20:33:20.949Z,19.30
2018-07-26T20:35:55.837Z,19.30
2018-07-26T20:38:29.408Z,19.30
2018-07-26T20:41:02.350Z,19.30
2018-07-26T20:46:08.042Z,19.20
2018-07-26T20:48:42.506Z,19.10
2018-07-26T20:51:16.409Z,19.10
2018-07-26T20:53:49.520Z,19.10
2018-07-26T20:56:23.723Z,19.00
2018-07-26T20:58:57.084Z,19.00
2018-07-26T21:01:30.168Z,18.90
2018-07-26T21:04:04.513Z,18.90
2018-07-26T21:06:38.821Z,18.90
2018-07-26T21:09:14.369Z,18.90
2018-07-26T21:11:47.350Z,18.80
2018-07-26T21:16:52.209Z,18.80
2018-07-26T21:19:24.749Z,18.80
2018-07-26T21:21:59.691Z,18.80
2018-07-26T21:24:32.769Z,18.70
2018-07-26T21:29:37.236Z,18.60
2018-07-26T21:32:11.000Z,18.60
2018-07-26T21:34:44.855Z,18.50
2018-07-26T21:37:21.560Z,18.50
2018-07-26T21:39:54.824Z,18.50
2018-07-26T21:42:27.365Z,18.50
2018-07-26T21:45:01.310Z,18.50
2018-07-26T21:47:34.012Z,18.50
2018-07-26T21:50:08.137Z,18.50
2018-07-26T21:52:41.616Z,18.50
2018-07-26T21:55:14.646Z,18.50
2018-07-26T21:57:48.180Z,18.40
2018-07-26T22:00:21.276Z,18.40
2018-07-26T22:02:54.988Z,18.40
2018-07-26T22:05:27.466Z,18.40
2018-07-26T22:08:00.596Z,18.40
2018-07-26T22:10:34.453Z,18.40
2018-07-26T22:13:07.278Z,18.40
2018-07-26T22:15:40.171Z,18.40
2018-07-26T22:18:12.996Z,18.30
2018-07-26T22:20:45.722Z,18.30
2018-07-26T22:23:18.546Z,18.20
2018-07-26T22:25:52.033Z,18.20
2018-07-26T22:28:24.669Z,18.20
2018-07-26T22:30:57.972Z,18.20
2018-07-26T22:33:31.129Z,18.10
2018-07-26T22:36:04.460Z,18.20
2018-07-26T22:41:09.812Z,18.30
2018-07-26T22:43:42.928Z,18.30
2018-07-26T22:46:15.754Z,18.30
2018-07-26T22:48:49.121Z,18.30
2018-07-26T22:51:21.632Z,18.20
2018-07-26T22:53:54.680Z,18.20
2018-07-26T22:56:27.193Z,18.20
2018-07-26T23:01:31.720Z,18.10
2018-07-26T23:04:04.605Z,18.10
2018-07-26T23:06:36.916Z,18.10
2018-07-26T23:09:11.855Z,18.20
2018-07-26T23:11:44.456Z,18.20
2018-07-26T23:14:17.595Z,18.10
2018-07-26T23:16:49.965Z,18.00
2018-07-26T23:19:22.395Z,17.90
2018-07-26T23:21:55.877Z,18.00
2018-07-26T23:24:29.320Z,18.00
2018-07-26T23:27:01.493Z,18.00
2018-07-26T23:29:34.407Z,17.90
2018-07-26T23:32:07.253Z,17.90
2018-07-26T23:34:40.202Z,17.90
2018-07-26T23:37:13.423Z,17.80
2018-07-26T23:39:45.728Z,17.80
2018-07-26T23:42:17.988Z,17.70
2018-07-26T23:44:50.750Z,17.70
2018-07-26T23:47:23.703Z,17.70
2018-07-26T23:49:57.015Z,17.60
2018-07-26T23:52:33.961Z,17.60
2018-07-26T23:55:06.787Z,17.60
2018-07-26T23:57:39.744Z,17.60
